createdAt,value
2023-04-02T00:01:36.875Z,97907.00
2023-04-02T00:04:22.781Z,97910.00
2023-04-02T00:07:16.550Z,97919.00
2023-04-02T00:09:47.461Z,97917.00
2023-04-02T00:12:20.137Z,97920.00
2023-04-02T00:14:54.801Z,97927.00
2023-04-02T00:17:25.968Z,97914.00
2023-04-02T00:20:08.188Z,97931.00
2023-04-02T00:22:44.984Z,97918.00
2023-04-02T00:25:16.043Z,97922.00
2023-04-02T00:27:46.941Z,97933.00
2023-04-02T00:30:17.926Z,97941.00
2023-04-02T00:32:49.299Z,97940.00
2023-04-02T00:35:27.668Z,97939.00
2023-04-02T00:37:58.615Z,97944.00
2023-04-02T00:40:31.800Z,97941.00
2023-04-02T00:43:03.560Z,97939.00
2023-04-02T00:45:37.637Z,97942.00
2023-04-02T00:48:45.262Z,97940.00
2023-04-02T00:51:32.807Z,97945.00
2023-04-02T00:54:06.693Z,97944.00
2023-04-02T00:56:44.938Z,97936.00
2023-04-02T00:59:35.751Z,97939.00
2023-04-02T01:02:17.538Z,97938.00
2023-04-02T01:05:02.323Z,97942.00
2023-04-02T01:08:15.751Z,97939.00
2023-04-02T01:11:23.524Z,97963.00
2023-04-02T01:14:34.672Z,97953.00
2023-04-02T01:17:43.323Z,97955.00
2023-04-02T01:20:22.510Z,97952.00
2023-04-02T01:23:18.600Z,97957.00
2023-04-02T01:26:14.112Z,97949.00
2023-04-02T01:29:05.430Z,97967.00
2023-04-02T01:31:38.030Z,97960.00
2023-04-02T01:34:15.418Z,97954.00
2023-04-02T01:37:03.914Z,97955.00
2023-04-02T01:39:49.691Z,97952.00
2023-04-02T01:42:52.491Z,97965.00
2023-04-02T01:45:25.601Z,97963.00
2023-04-02T01:47:57.291Z,97960.00
2023-04-02T01:50:37.064Z,97966.00
2023-04-02T01:53:13.842Z,97968.00
2023-04-02T01:55:53.147Z,97969.00
2023-04-02T01:58:28.722Z,97973.00
2023-04-02T02:01:26.058Z,97975.00
2023-04-02T02:03:57.183Z,97978.00
2023-04-02T02:06:28.355Z,97978.00
2023-04-02T02:09:04.512Z,97977.00
2023-04-02T02:11:36.550Z,97984.00
2023-04-02T02:14:17.187Z,97974.00
2023-04-02T02:16:48.975Z,97981.00
2023-04-02T02:19:38.596Z,97988.00
2023-04-02T02:22:28.214Z,97986.00
2023-04-02T02:25:02.501Z,97986.00
2023-04-02T02:27:42.022Z,97987.00
2023-04-02T02:30:28.498Z,97993.00
2023-04-02T02:33:16.533Z,98000.00
2023-04-02T02:36:28.729Z,98004.00
2023-04-02T02:39:24.427Z,98003.00
2023-04-02T02:42:04.576Z,97997.00
2023-04-02T02:44:39.520Z,98010.00
2023-04-02T02:47:19.928Z,98037.00
2023-04-02T02:49:55.401Z,98017.00
2023-04-02T02:52:33.154Z,98021.00
2023-04-02T02:55:13.536Z,98009.00
2023-04-02T02:57:50.420Z,98015.00
2023-04-02T03:00:24.599Z,98021.00
2023-04-02T03:02:57.557Z,98033.00
2023-04-02T03:05:30.175Z,98031.00
2023-04-02T03:08:04.027Z,98026.00
2023-04-02T03:10:56.434Z,98031.00
2023-04-02T03:13:35.641Z,98038.00
2023-04-02T03:16:41.339Z,98027.00
2023-04-02T03:19:23.368Z,98040.00
2023-04-02T03:22:05.471Z,98040.00
2023-04-02T03:24:45.643Z,98048.00
2023-04-02T03:27:28.471Z,98052.00
2023-04-02T03:30:18.325Z,98045.00
2023-04-02T03:32:58.490Z,98053.00
2023-04-02T03:35:47.365Z,98048.00
2023-04-02T03:38:28.660Z,98058.00
2023-04-02T03:41:27.728Z,98054.00
2023-04-02T03:44:07.703Z,98051.00
2023-04-02T03:46:45.170Z,98062.00
2023-04-02T03:49:39.748Z,98057.00
2023-04-02T03:52:14.601Z,98064.00
2023-04-02T03:54:53.355Z,98070.00
2023-04-02T03:57:36.478Z,98073.00
2023-04-02T04:00:45.548Z,98070.00
2023-04-02T04:03:39.537Z,98080.00
2023-04-02T04:06:20.179Z,98072.00
2023-04-02T04:08:59.615Z,98083.00
2023-04-02T04:11:45.041Z,98085.00
2023-04-02T04:14:38.025Z,98079.00
2023-04-02T04:17:09.556Z,98079.00
2023-04-02T04:20:15.582Z,98095.00
2023-04-02T04:22:49.824Z,98094.00
2023-04-02T04:25:30.648Z,98089.00
2023-04-02T04:28:26.814Z,98095.00
2023-04-02T04:31:26.070Z,98103.00
2023-04-02T04:34:04.067Z,98108.00
2023-04-02T04:36:56.357Z,98104.00
2023-04-02T04:39:40.470Z,98111.00
2023-04-02T04:42:29.468Z,98114.00
2023-04-02T04:45:21.685Z,98125.00
2023-04-02T04:48:01.913Z,98121.00
2023-04-02T04:50:45.359Z,98124.00
2023-04-02T04:53:22.270Z,98136.00
2023-04-02T04:56:18.150Z,98129.00
2023-04-02T04:59:04.694Z,98137.00
2023-04-02T05:02:03.602Z,98135.00
2023-04-02T05:04:40.067Z,98136.00
2023-04-02T05:07:14.260Z,98139.00
2023-04-02T05:10:07.506Z,98147.00
2023-04-02T05:12:48.902Z,98136.00
2023-04-02T05:15:35.592Z,98148.00
2023-04-02T05:18:45.056Z,98155.00
2023-04-02T05:21:33.584Z,98156.00
2023-04-02T05:24:42.927Z,98158.00
2023-04-02T05:27:28.760Z,98159.00
2023-04-02T05:30:28.719Z,98169.00
2023-04-02T05:33:18.361Z,98168.00
2023-04-02T05:36:01.417Z,98172.00
2023-04-02T05:38:46.504Z,98175.00
2023-04-02T05:41:36.606Z,98177.00
2023-04-02T05:44:15.948Z,98173.00
2023-04-02T05:46:59.812Z,98179.00
2023-04-02T05:49:40.444Z,98185.00
2023-04-02T05:52:26.209Z,98176.00
2023-04-02T05:55:23.034Z,98191.00
2023-04-02T05:58:29.386Z,98193.00
2023-04-02T06:01:17.564Z,98197.00
2023-04-02T06:04:31.370Z,98200.00
2023-04-02T06:07:12.460Z,98211.00
2023-04-02T06:09:52.517Z,98209.00
2023-04-02T06:12:53.458Z,98222.00
2023-04-02T06:15:24.912Z,98221.00
2023-04-02T06:18:04.702Z,98221.00
2023-04-02T06:20:35.979Z,98223.00
2023-04-02T06:23:21.150Z,98229.00
2023-04-02T06:26:22.356Z,98228.00
2023-04-02T06:29:13.169Z,98238.00
2023-04-02T06:31:59.959Z,98236.00
2023-04-02T06:34:32.064Z,98249.00
2023-04-02T06:37:20.234Z,98247.00
2023-04-02T06:39:51.133Z,98247.00
2023-04-02T06:42:38.007Z,98251.00
2023-04-02T06:45:23.620Z,98258.00
2023-04-02T06:47:57.447Z,98254.00
2023-04-02T06:50:50.054Z,98264.00
2023-04-02T06:53:37.626Z,98261.00
2023-04-02T06:56:45.474Z,98266.00
2023-04-02T06:59:18.034Z,98274.00
2023-04-02T07:01:55.380Z,98280.00
2023-04-02T07:04:27.736Z,98300.00
2023-04-02T07:06:58.807Z,98300.00
2023-04-02T07:09:29.866Z,98299.00
2023-04-02T07:12:01.188Z,98300.00
2023-04-02T07:14:32.402Z,98304.00
2023-04-02T07:17:03.310Z,98303.00
2023-04-02T07:19:34.148Z,98305.00
2023-04-02T07:22:05.247Z,98304.00
2023-04-02T07:24:36.085Z,98309.00
2023-04-02T07:27:07.002Z,98339.00
2023-04-02T07:29:42.677Z,98320.00
2023-04-02T07:32:14.017Z,98331.00
2023-04-02T07:34:44.907Z,98330.00
2023-04-02T07:37:15.881Z,98330.00
2023-04-02T07:39:46.753Z,98335.00
2023-04-02T07:42:17.665Z,98337.00
2023-04-02T07:44:48.574Z,98340.00
2023-04-02T07:47:19.568Z,98336.00
2023-04-02T07:49:50.589Z,98346.00
2023-04-02T07:52:21.779Z,98345.00
2023-04-02T07:54:52.627Z,98355.00
2023-04-02T07:57:23.715Z,98360.00
2023-04-02T07:59:56.574Z,98359.00
2023-04-02T08:02:27.504Z,98359.00
2023-04-02T08:04:58.410Z,98369.00
2023-04-02T08:07:29.275Z,98378.00
2023-04-02T08:10:00.506Z,98376.00
2023-04-02T08:12:31.573Z,98377.00
2023-04-02T08:15:03.771Z,98395.00
2023-04-02T08:17:34.777Z,98385.00
2023-04-02T08:21:00.704Z,98385.00
2023-04-02T08:23:31.833Z,98395.00
2023-04-02T08:26:03.427Z,98391.00
2023-04-02T08:28:34.844Z,98394.00
2023-04-02T08:31:09.250Z,98401.00
2023-04-02T08:33:40.642Z,98414.00
2023-04-02T08:36:18.140Z,98407.00
2023-04-02T08:38:49.111Z,98415.00
2023-04-02T08:41:28.792Z,98415.00
2023-04-02T08:44:30.090Z,98420.00
2023-04-02T08:47:07.939Z,98421.00
2023-04-02T08:49:50.875Z,98431.00
2023-04-02T08:52:34.238Z,98429.00
2023-04-02T08:55:37.191Z,98432.00
2023-04-02T08:58:44.341Z,98433.00
2023-04-02T09:01:42.462Z,98448.00
2023-04-02T09:04:21.941Z,98441.00
2023-04-02T09:06:56.686Z,98449.00
2023-04-02T09:09:28.023Z,98451.00
2023-04-02T09:12:04.619Z,98464.00
2023-04-02T09:15:29.491Z,98457.00
2023-04-02T09:18:19.145Z,98476.00
2023-04-02T09:20:50.437Z,98462.00
2023-04-02T09:23:24.452Z,98467.00
2023-04-02T09:26:04.302Z,98465.00
2023-04-02T09:28:36.357Z,98459.00
2023-04-02T09:31:30.765Z,98457.00
2023-04-02T09:34:02.624Z,98476.00
2023-04-02T09:36:39.436Z,98477.00
2023-04-02T09:39:18.262Z,98480.00
2023-04-02T09:42:02.894Z,98491.00
2023-04-02T09:44:37.155Z,98498.00
2023-04-02T09:47:26.310Z,98485.00
2023-04-02T09:50:34.240Z,98489.00
2023-04-02T09:53:35.810Z,98497.00
2023-04-02T09:56:11.714Z,98499.00
2023-04-02T09:58:44.606Z,98511.00
2023-04-02T10:01:47.998Z,98495.00
2023-04-02T10:04:45.441Z,98506.00
2023-04-02T10:07:43.937Z,98507.00
2023-04-02T10:10:36.784Z,98510.00
2023-04-02T10:13:30.197Z,98513.00
2023-04-02T10:16:37.841Z,98522.00
2023-04-02T10:19:45.092Z,98515.00
2023-04-02T10:22:20.000Z,98524.00
2023-04-02T10:24:51.231Z,98516.00
2023-04-02T10:27:52.132Z,98518.00
2023-04-02T10:30:53.058Z,98519.00
2023-04-02T10:33:38.732Z,98534.00
2023-04-02T10:36:21.746Z,98527.00
2023-04-02T10:39:14.022Z,98527.00
2023-04-02T10:42:22.979Z,98536.00
2023-04-02T10:45:37.975Z,98539.00
2023-04-02T10:48:57.925Z,98541.00
2023-04-02T10:52:17.026Z,98542.00
2023-04-02T10:54:51.622Z,98556.00
2023-04-02T10:57:41.523Z,98546.00
2023-04-02T11:00:18.699Z,98575.00
2023-04-02T11:03:08.158Z,98563.00
2023-04-02T11:05:49.351Z,98569.00
2023-04-02T11:08:29.314Z,98561.00
2023-04-02T11:11:14.559Z,98563.00
2023-04-02T11:14:03.726Z,98567.00
2023-04-02T11:16:37.198Z,98574.00
2023-04-02T11:19:24.619Z,98582.00
2023-04-02T11:22:20.456Z,98574.00
2023-04-02T11:24:54.565Z,98572.00
2023-04-02T11:27:32.002Z,98571.00
2023-04-02T11:30:20.628Z,98589.00
2023-04-02T11:33:35.843Z,98586.00
2023-04-02T11:36:54.935Z,98588.00
2023-04-02T11:39:55.158Z,98583.00
2023-04-02T11:42:31.657Z,98591.00
2023-04-02T11:45:23.677Z,98591.00
2023-04-02T11:48:05.643Z,98594.00
2023-04-02T11:50:40.374Z,98588.00
2023-04-02T11:53:14.800Z,98597.00
2023-04-02T11:56:18.057Z,98594.00
2023-04-02T11:58:57.928Z,98596.00
2023-04-02T12:02:04.028Z,98601.00
2023-04-02T12:04:43.852Z,98595.00
2023-04-02T12:07:35.160Z,98599.00
2023-04-02T12:10:34.632Z,98609.00
2023-04-02T12:13:05.825Z,98615.00
2023-04-02T12:15:44.847Z,98614.00
2023-04-02T12:18:24.655Z,98607.00
2023-04-02T12:20:57.460Z,98624.00
2023-04-02T12:23:32.658Z,98617.00
2023-04-02T12:26:08.382Z,98619.00
2023-04-02T12:28:39.424Z,98611.00
2023-04-02T12:31:17.717Z,98621.00
2023-04-02T12:33:53.447Z,98636.00
2023-04-02T12:36:24.263Z,98619.00
2023-04-02T12:38:58.570Z,98631.00
2023-04-02T12:41:36.719Z,98628.00
2023-04-02T12:44:18.885Z,98637.00
2023-04-02T12:46:51.322Z,98649.00
2023-04-02T12:49:39.509Z,98638.00
2023-04-02T12:52:19.291Z,98649.00
2023-04-02T12:55:03.041Z,98647.00
2023-04-02T12:57:38.819Z,98663.00
2023-04-02T13:00:21.859Z,98660.00
2023-04-02T13:03:20.495Z,98659.00
2023-04-02T13:05:56.128Z,98656.00
2023-04-02T13:08:42.384Z,98665.00
2023-04-02T13:11:13.433Z,98656.00
2023-04-02T13:13:47.055Z,98662.00
2023-04-02T13:16:17.949Z,98666.00
2023-04-02T13:18:50.070Z,98661.00
2023-04-02T13:21:20.999Z,98659.00
2023-04-02T13:23:54.687Z,98664.00
2023-04-02T13:26:29.566Z,98683.00
2023-04-02T13:29:35.804Z,98678.00
2023-04-02T13:32:12.306Z,98685.00
2023-04-02T13:34:43.153Z,98683.00
2023-04-02T13:37:14.012Z,98691.00
2023-04-02T13:39:44.868Z,98696.00
2023-04-02T13:42:18.037Z,98698.00
2023-04-02T13:44:49.182Z,98694.00
2023-04-02T13:47:20.092Z,98708.00
2023-04-02T13:49:50.927Z,98702.00
2023-04-02T13:52:21.920Z,98707.00
2023-04-02T13:54:56.627Z,98698.00
2023-04-02T13:57:27.565Z,98716.00
2023-04-02T13:59:58.445Z,98712.00
2023-04-02T14:02:30.242Z,98719.00
2023-04-02T14:05:13.495Z,98718.00
2023-04-02T14:08:11.887Z,98719.00
2023-04-02T14:10:52.215Z,98728.00
2023-04-02T14:13:53.499Z,98734.00
2023-04-02T14:16:38.570Z,98741.00
2023-04-02T14:19:37.934Z,98740.00
2023-04-02T14:22:55.102Z,98741.00
2023-04-02T14:25:50.342Z,98745.00
2023-04-02T14:28:39.180Z,98753.00
2023-04-02T14:31:41.809Z,98760.00
2023-04-02T14:34:21.565Z,98760.00
2023-04-02T14:37:29.951Z,98767.00
2023-04-02T14:40:35.647Z,98764.00
2023-04-02T14:43:37.169Z,98766.00
2023-04-02T14:46:11.595Z,98776.00
2023-04-02T14:48:48.242Z,98774.00
2023-04-02T14:51:53.389Z,98777.00
2023-04-02T14:54:40.081Z,98781.00
2023-04-02T14:57:29.565Z,98785.00
2023-04-02T15:00:24.987Z,98794.00
2023-04-02T15:03:24.198Z,98783.00
2023-04-02T15:06:05.248Z,98796.00
2023-04-02T15:09:06.134Z,98800.00
2023-04-02T15:11:50.959Z,98797.00
2023-04-02T15:14:44.618Z,98800.00
2023-04-02T15:17:15.474Z,98806.00
2023-04-02T15:19:47.430Z,98812.00
2023-04-02T15:22:29.649Z,98820.00
2023-04-02T15:25:26.168Z,98827.00
2023-04-02T15:28:27.021Z,98822.00
2023-04-02T15:31:04.101Z,98829.00
2023-04-02T15:33:41.846Z,98833.00
2023-04-02T15:36:37.420Z,98833.00
2023-04-02T15:39:31.961Z,98836.00
2023-04-02T15:42:34.730Z,98843.00
2023-04-02T15:45:24.365Z,98842.00
2023-04-02T15:48:26.898Z,98847.00
2023-04-02T15:51:01.379Z,98856.00
2023-04-02T15:54:16.476Z,98859.00
2023-04-02T15:57:21.076Z,98857.00
2023-04-02T16:00:27.962Z,98862.00
2023-04-02T16:03:37.471Z,98876.00
2023-04-02T16:06:18.329Z,98883.00
2023-04-02T16:09:08.562Z,98879.00
2023-04-02T16:11:40.303Z,98883.00
2023-04-02T16:14:32.213Z,98883.00
2023-04-02T16:17:21.491Z,98901.00
2023-04-02T16:20:10.698Z,98899.00
2023-04-02T16:22:59.259Z,98902.00
2023-04-02T16:26:19.290Z,98902.00
2023-04-02T16:29:25.823Z,98908.00
2023-04-02T16:32:21.235Z,98916.00
2023-04-02T16:35:35.266Z,98929.00
2023-04-02T16:38:31.902Z,98927.00
2023-04-02T16:41:17.607Z,98928.00
2023-04-02T16:44:12.680Z,98934.00
2023-04-02T16:47:04.529Z,98935.00
2023-04-02T16:49:47.019Z,98944.00
2023-04-02T16:52:50.397Z,98945.00
2023-04-02T16:56:02.095Z,98953.00
2023-04-02T16:58:49.041Z,98947.00
2023-04-02T17:01:35.239Z,98966.00
2023-04-02T17:04:52.332Z,98967.00
2023-04-02T17:07:51.780Z,98970.00
2023-04-02T17:10:49.335Z,98979.00
2023-04-02T17:13:41.214Z,98985.00
2023-04-02T17:16:37.669Z,98998.00
2023-04-02T17:19:12.476Z,99003.00
2023-04-02T17:21:53.280Z,99005.00
2023-04-02T17:24:28.716Z,99003.00
2023-04-02T17:27:29.812Z,99012.00
2023-04-02T17:30:07.855Z,99020.00
2023-04-02T17:32:38.802Z,99028.00
2023-04-02T17:35:33.834Z,99047.00
2023-04-02T17:38:26.140Z,99049.00
2023-04-02T17:41:30.882Z,99072.00
2023-04-02T17:44:23.906Z,99063.00
2023-04-02T17:47:20.708Z,99069.00
2023-04-02T17:50:21.501Z,99077.00
2023-04-02T17:53:07.620Z,99079.00
2023-04-02T17:56:17.340Z,99087.00
2023-04-02T17:59:26.381Z,99094.00
2023-04-02T18:02:43.607Z,99094.00
2023-04-02T18:05:45.447Z,99113.00
2023-04-02T18:09:12.075Z,99116.00
2023-04-02T18:11:51.308Z,99111.00
2023-04-02T18:14:59.718Z,99123.00
2023-04-02T18:17:58.459Z,99154.00
2023-04-02T18:20:38.453Z,99147.00
2023-04-02T18:24:02.891Z,99142.00
2023-04-02T18:26:51.664Z,99162.00
2023-04-02T18:29:55.938Z,99164.00
2023-04-02T18:33:06.592Z,99173.00
2023-04-02T18:35:47.682Z,99183.00
2023-04-02T18:38:28.046Z,99187.00
2023-04-02T18:42:02.488Z,99182.00
2023-04-02T18:45:20.903Z,99205.00
2023-04-02T18:48:18.764Z,99207.00
2023-04-02T18:50:50.128Z,99212.00
2023-04-02T18:53:26.109Z,99212.00
2023-04-02T18:56:03.968Z,99225.00
2023-04-02T18:59:04.842Z,99265.00
2023-04-02T19:01:47.205Z,99250.00
2023-04-02T19:04:29.408Z,99246.00
2023-04-02T19:07:10.598Z,99254.00
2023-04-02T19:09:47.640Z,99255.00
2023-04-02T19:12:22.224Z,99263.00
2023-04-02T19:14:56.305Z,99270.00
2023-04-02T19:17:38.234Z,99263.00
2023-04-02T19:20:33.128Z,99276.00
2023-04-02T19:23:31.321Z,99291.00
2023-04-02T19:26:16.118Z,99297.00
2023-04-02T19:28:49.991Z,99295.00
2023-04-02T19:32:05.834Z,99293.00
2023-04-02T19:35:17.997Z,99310.00
2023-04-02T19:38:26.848Z,99323.00
2023-04-02T19:41:27.899Z,99324.00
2023-04-02T19:43:59.195Z,99321.00
2023-04-02T19:46:31.834Z,99343.00
2023-04-02T19:49:17.520Z,99344.00
2023-04-02T19:51:49.497Z,99351.00
2023-04-02T19:54:20.847Z,99353.00
2023-04-02T19:56:51.839Z,99355.00
2023-04-02T19:59:22.909Z,99361.00
2023-04-02T20:01:54.407Z,99365.00
2023-04-02T20:04:25.605Z,99370.00
2023-04-02T20:06:56.544Z,99376.00
2023-04-02T20:09:27.516Z,99385.00
2023-04-02T20:11:58.394Z,99375.00
2023-04-02T20:14:32.549Z,99379.00
2023-04-02T20:17:03.547Z,99379.00
2023-04-02T20:19:35.748Z,99380.00
2023-04-02T20:22:06.753Z,99376.00
2023-04-02T20:24:37.613Z,99382.00
2023-04-02T20:27:08.621Z,99383.00
2023-04-02T20:29:41.157Z,99381.00
2023-04-02T20:32:13.116Z,99390.00
2023-04-02T20:34:44.394Z,99389.00
2023-04-02T20:37:15.581Z,99389.00
2023-04-02T20:39:46.416Z,99398.00
2023-04-02T20:42:17.349Z,99393.00
2023-04-02T20:44:48.242Z,99404.00
2023-04-02T20:47:19.536Z,99407.00
2023-04-02T20:49:51.198Z,99410.00
2023-04-02T20:52:22.167Z,99407.00
2023-04-02T20:54:53.015Z,99410.00
2023-04-02T20:57:25.537Z,99416.00
2023-04-02T20:59:58.360Z,99418.00
2023-04-02T21:02:29.221Z,99414.00
2023-04-02T21:05:00.532Z,99421.00
2023-04-02T21:07:31.431Z,99427.00
2023-04-02T21:10:02.300Z,99433.00
2023-04-02T21:12:33.132Z,99436.00
2023-04-02T21:15:04.276Z,99431.00
2023-04-02T21:17:35.349Z,99430.00
2023-04-02T21:20:07.017Z,99441.00
2023-04-02T21:22:37.924Z,99445.00
2023-04-02T21:25:09.598Z,99448.00
2023-04-02T21:27:40.522Z,99448.00
2023-04-02T21:30:11.963Z,99459.00
2023-04-02T21:32:42.920Z,99452.00
2023-04-02T21:35:13.798Z,99455.00
2023-04-02T21:37:45.385Z,99451.00
2023-04-02T21:40:16.556Z,99451.00
2023-04-02T21:42:47.657Z,99450.00
2023-04-02T21:45:18.494Z,99445.00
2023-04-02T21:47:49.393Z,99448.00
2023-04-02T21:50:20.359Z,99454.00
2023-04-02T21:52:51.192Z,99456.00
2023-04-02T21:55:22.096Z,99458.00
2023-04-02T21:57:52.967Z,99464.00
2023-04-02T22:00:24.052Z,99460.00
2023-04-02T22:02:55.102Z,99462.00
2023-04-02T22:05:28.922Z,99475.00
2023-04-02T22:07:59.773Z,99469.00
2023-04-02T22:10:30.931Z,99482.00
2023-04-02T22:13:02.432Z,99477.00
2023-04-02T22:15:33.822Z,99495.00
2023-04-02T22:18:05.023Z,99492.00
2023-04-02T22:20:39.177Z,99487.00
2023-04-02T22:23:10.843Z,99492.00
2023-04-02T22:25:41.678Z,99498.00
2023-04-02T22:28:12.531Z,99490.00
2023-04-02T22:30:44.885Z,99503.00
2023-04-02T22:33:16.870Z,99499.00
2023-04-02T22:35:51.841Z,99530.00
2023-04-02T22:38:22.717Z,99497.00
2023-04-02T22:41:05.693Z,99497.00
2023-04-02T22:43:37.818Z,99493.00
2023-04-02T22:46:11.487Z,99516.00
2023-04-02T22:48:43.951Z,99491.00
2023-04-02T22:51:17.804Z,99488.00
2023-04-02T22:53:49.706Z,99489.00
2023-04-02T22:56:27.574Z,99491.00
2023-04-02T22:58:58.486Z,99498.00
2023-04-02T23:01:34.104Z,99491.00
2023-04-02T23:04:05.403Z,99500.00
2023-04-02T23:06:36.424Z,99493.00
2023-04-02T23:09:07.672Z,99487.00
2023-04-02T23:11:38.535Z,99483.00
2023-04-02T23:14:09.917Z,99486.00
2023-04-02T23:16:40.830Z,99489.00
2023-04-02T23:19:11.908Z,99493.00
2023-04-02T23:21:42.802Z,99491.00
2023-04-02T23:24:14.078Z,99489.00
2023-04-02T23:26:44.972Z,99482.00
2023-04-02T23:29:15.863Z,99483.00
2023-04-02T23:31:46.823Z,99485.00
2023-04-02T23:34:17.856Z,99479.00
2023-04-02T23:36:48.736Z,99478.00
2023-04-02T23:39:20.326Z,99476.00
2023-04-02T23:41:51.533Z,99476.00
2023-04-02T23:44:22.496Z,99493.00
2023-04-02T23:46:53.686Z,99480.00
2023-04-02T23:49:24.708Z,99483.00
2023-04-02T23:51:55.887Z,99482.00
2023-04-02T23:54:27.047Z,99481.00
2023-04-02T23:56:57.934Z,99482.00
2023-04-02T23:59:28.922Z,99479.00
